Garson, Canada
Current Conditions -  °F | °C
As of 7:00 AM on Thursday 29 Jan 2015 (Local Time) from CYSB Reporting Station
Light Snow Light Snow  
Wind Chill:   Ceiling: 5500
Heat Index: 14°   Visibility: 15mi
Dew Point: 10°   Wind: 12mph
Humidity: 86%   Direction: 140°SE
Pressure: 29.87"   Gusts: 18mph
Location:  46.57°N, 80.87°W
Report Text: CYSB 291200Z 14010G16KT 15SM -SN FEW024 BKN055 OVC089 M10/M12 A2987 RMK SC2SC4AC2 SLP139
Loading
Personal Weather Stations






























Interactive Weather Map New forecast layout! Learn more

10-Day Weather Forecast

Advertisements
Track Severe Weather on mobile